| Pilot: | GLD1793 Tiago I. | Aircraft: | ATCCOM.ATC_NAME CESSNA. | Distance: | 104NM |
| From: | LPLA | To: | LPGR | Duration: | 0.57 |
| Validation: | Valid | Tipo: | Charter | Tail Number: | PT-GLD |
| ZFW: | 1732 | Block Fuel/Init FOB | 76flight_details.php/50 | Flight Fuel | 76 |
| Passengers: | 3 | Cargo: | 0 | Alternate: | LPLA |
| Departure Time: | 1921 | Cruise Speed: | 111 | Flight Level: | FL600 |
| Flight Type: | IFR | Aircraft Type: | C172 | Weight Unit: | Kg |
| Date: | 01/05/2026 | Comments: | GOLD ACARS | Network: | VATSIM |
| Crash: | No | Validator Comments: | Rating | 100 |
| ROUTE | DCT IRDOP IRDO1A |
| REMARKS | OPR/GOLD VIRTUAL AIRLINES PER/C RMK/FROM LPLA RMK/PIC GLD1793 |
| Crash | OK | Beacon Lights off with engine on | OK | Speed above 250KIAS below 10.000ft | OK |
| Landing Lights OFF below 10.000ft | OK | Landing Lights ON above 10.000ft | OK | Stall | OK |
| Overspeed | OK | Pause | OK | Refuel | OK |
| Slew | OK | Taxi Lights OFF during taxi | OK | Land Lights OFF during take off | OK |
| Landing Lights OFF during landing | OK | Landed in not planned airfield | OK | Taxi speed above 25 kt | OK |
| Incorrect QNH during take off | OK | Incorrect QNH during landing | OK |
| Wind: | 73º/16 kt | Heading: | 82 |
| VS: | -55 ft/min | IAS: | 42 kt |
| Gforce: | 1.0576 G | Bank: | -0.15 |
| Pitch | 3.75 | Flaps | 100 |
| Nav Lights | ON | Landing Lights | ON |
| Beacon Lights | ON | Strobe Lights | ON |
| DATE | EVENT | IAS | ALTITUDE |
|---|---|---|---|
| 2026-05-01 19:21:30 | GOLD ACARS VERSION 3.3.7.0 | 0 | 0 |
| 2026-05-01 19:21:30 | BOARDING | 0 | 44 |
| 2026-05-01 19:21:35 | BCN LIGHTS ON | 0 | 44 |
| 2026-05-01 19:21:36 | STB LIGHTS ON | 0 | 44 |
| 2026-05-01 19:21:39 | NAV LIGHTS ON | 0 | 44 |
| 2026-05-01 19:21:40 | TAXI LIGHTS ON | 0 | 44 |
| 2026-05-01 19:21:41 | LND LIGHTS ON | 0 | 44 |
| 2026-05-01 19:21:49 | STARTING ENGINE 1 | 0 | 44 |
| 2026-05-01 19:26:06 | TAXI TO THE RWY | 0 | 44 |
| 2026-05-01 19:26:52 | FLAP 33% | 0 | 43 |
| 2026-05-01 19:26:53 | FLAP 66% | 0 | 43 |
| 2026-05-01 19:27:46 | GEAR UP | 60 | 46 |
| 2026-05-01 19:27:48 | CLIMBING | 62 | 56 |
| 2026-05-01 19:27:57 | AP ENGAGED | 60 | 189 |
| 2026-05-01 19:28:01 | AP DISENGAGED | 57 | 264 |
| 2026-05-01 19:28:06 | CRUISE | 62 | 318 |
| 2026-05-01 19:28:08 | FLAP 33% | 69 | 323 |
| 2026-05-01 19:28:08 | FLAP 0% | 71 | 323 |
| 2026-05-01 19:28:15 | CLIMBING | 89 | 320 |
| 2026-05-01 19:28:15 | AP ENGAGED | 88 | 327 |
| 2026-05-01 19:33:14 | AP DISENGAGED | 85 | 4866 |
| 2026-05-01 19:33:15 | AP ENGAGED | 85 | 4873 |
| 2026-05-01 19:34:32 | CRUISE | 80 | 5989 |
| 2026-05-01 19:35:30 | DESCEND | 112 | 6116 |
| 2026-05-01 19:50:57 | AP DISENGAGED | 114 | 1291 |
| 2026-05-01 19:51:20 | FLAP 33% | 86 | 1156 |
| 2026-05-01 19:51:24 | FLAP 66% | 81 | 1124 |
| 2026-05-01 19:51:24 | FLAP 100% | 80 | 1120 |
| 2026-05-01 19:53:43 | LANDED AIRPORT [LPGR] | 42 | 67 |
| 2026-05-01 19:53:43 | LANDED - VS: -55 ft/min | 41 | 65 |
| 2026-05-01 19:53:51 | TAXI TO THE GATE | 29 | 62 |
| 2026-05-01 19:54:30 | FLAP 66% | 2 | 55 |
| 2026-05-01 19:54:30 | FLAP 0% | 2 | 56 |
| 2026-05-01 19:55:10 | AT THE GATE | 0 | 59 |
| 2026-05-01 19:55:38 | LND LIGHTS OFF | 0 | 59 |
| 2026-05-01 19:55:40 | TAXI LIGHTS OFF | 0 | 59 |
| 2026-05-01 19:55:43 | NAV LIGHTS OFF | 0 | 59 |
| 2026-05-01 19:55:49 | STOPPING ENGINE 1 | 0 | 59 |
| 2026-05-01 19:55:55 | STB LIGHTS OFF | 0 | 59 |
| 2026-05-01 19:55:56 | BCN LIGHTS OFF | 0 | 59 |
| 2026-05-01 19:55:56 | FLIGHT FINISHED | 0 | 59 |
| 2026-05-01 19:21:30 | GOLD ACARS VERSION 3.3.7.0 | 0 | 0 |
| 2026-05-01 19:21:30 | BOARDING | 0 | 44 |
| 2026-05-01 19:21:35 | BCN LIGHTS ON | 0 | 44 |
| 2026-05-01 19:21:36 | STB LIGHTS ON | 0 | 44 |
| 2026-05-01 19:21:39 | NAV LIGHTS ON | 0 | 44 |
| 2026-05-01 19:21:40 | TAXI LIGHTS ON | 0 | 44 |
| 2026-05-01 19:21:41 | LND LIGHTS ON | 0 | 44 |
| 2026-05-01 19:21:49 | STARTING ENGINE 1 | 0 | 44 |
| 2026-05-01 19:26:06 | TAXI TO THE RWY | 0 | 44 |
| 2026-05-01 19:26:52 | FLAP 33% | 0 | 43 |
| 2026-05-01 19:26:53 | FLAP 66% | 0 | 43 |
| 2026-05-01 19:27:46 | GEAR UP | 60 | 46 |
| 2026-05-01 19:27:48 | CLIMBING | 62 | 56 |
| 2026-05-01 19:27:57 | AP ENGAGED | 60 | 189 |
| 2026-05-01 19:28:01 | AP DISENGAGED | 57 | 264 |
| 2026-05-01 19:28:06 | CRUISE | 62 | 318 |
| 2026-05-01 19:28:08 | FLAP 33% | 69 | 323 |
| 2026-05-01 19:28:08 | FLAP 0% | 71 | 323 |
| 2026-05-01 19:28:15 | CLIMBING | 89 | 320 |
| 2026-05-01 19:28:15 | AP ENGAGED | 88 | 327 |
| 2026-05-01 19:33:14 | AP DISENGAGED | 85 | 4866 |
| 2026-05-01 19:33:15 | AP ENGAGED | 85 | 4873 |
| 2026-05-01 19:34:32 | CRUISE | 80 | 5989 |
| 2026-05-01 19:35:30 | DESCEND | 112 | 6116 |
| 2026-05-01 19:50:57 | AP DISENGAGED | 114 | 1291 |
| 2026-05-01 19:51:20 | FLAP 33% | 86 | 1156 |
| 2026-05-01 19:51:24 | FLAP 66% | 81 | 1124 |
| 2026-05-01 19:51:24 | FLAP 100% | 80 | 1120 |
| 2026-05-01 19:53:43 | LANDED AIRPORT [LPGR] | 42 | 67 |
| 2026-05-01 19:53:43 | LANDED - VS: -55 ft/min | 41 | 65 |
| 2026-05-01 19:53:51 | TAXI TO THE GATE | 29 | 62 |
| 2026-05-01 19:54:30 | FLAP 66% | 2 | 55 |
| 2026-05-01 19:54:30 | FLAP 0% | 2 | 56 |
| 2026-05-01 19:55:10 | AT THE GATE | 0 | 59 |
| 2026-05-01 19:55:38 | LND LIGHTS OFF | 0 | 59 |
| 2026-05-01 19:55:40 | TAXI LIGHTS OFF | 0 | 59 |
| 2026-05-01 19:55:43 | NAV LIGHTS OFF | 0 | 59 |
| 2026-05-01 19:55:49 | STOPPING ENGINE 1 | 0 | 59 |
| 2026-05-01 19:55:55 | STB LIGHTS OFF | 0 | 59 |
| 2026-05-01 19:55:56 | BCN LIGHTS OFF | 0 | 59 |
| 2026-05-01 19:55:56 | FLIGHT FINISHED | 0 | 59 |
| 2026-05-01 20:05:40 | NAV LIGHTS ON | 0 | 59 |
| 2026-05-01 20:05:41 | BCN LIGHTS ON | 0 | 59 |
| 2026-05-01 20:05:41 | TAXI LIGHTS ON | 0 | 59 |
| 2026-05-01 20:05:42 | STB LIGHTS ON | 0 | 59 |
| 2026-05-01 20:05:43 | LND LIGHTS ON | 0 | 59 |
| 2026-05-01 19:21:30 | GOLD ACARS VERSION 3.3.7.0 | 0 | 0 |
| 2026-05-01 19:21:30 | BOARDING | 0 | 44 |
| 2026-05-01 19:21:35 | BCN LIGHTS ON | 0 | 44 |
| 2026-05-01 19:21:36 | STB LIGHTS ON | 0 | 44 |
| 2026-05-01 19:21:39 | NAV LIGHTS ON | 0 | 44 |
| 2026-05-01 19:21:40 | TAXI LIGHTS ON | 0 | 44 |
| 2026-05-01 19:21:41 | LND LIGHTS ON | 0 | 44 |
| 2026-05-01 19:21:49 | STARTING ENGINE 1 | 0 | 44 |
| 2026-05-01 19:26:06 | TAXI TO THE RWY | 0 | 44 |
| 2026-05-01 19:26:52 | FLAP 33% | 0 | 43 |
| 2026-05-01 19:26:53 | FLAP 66% | 0 | 43 |
| 2026-05-01 19:27:46 | GEAR UP | 60 | 46 |
| 2026-05-01 19:27:48 | CLIMBING | 62 | 56 |
| 2026-05-01 19:27:57 | AP ENGAGED | 60 | 189 |
| 2026-05-01 19:28:01 | AP DISENGAGED | 57 | 264 |
| 2026-05-01 19:28:06 | CRUISE | 62 | 318 |
| 2026-05-01 19:28:08 | FLAP 33% | 69 | 323 |
| 2026-05-01 19:28:08 | FLAP 0% | 71 | 323 |
| 2026-05-01 19:28:15 | CLIMBING | 89 | 320 |
| 2026-05-01 19:28:15 | AP ENGAGED | 88 | 327 |
| 2026-05-01 19:33:14 | AP DISENGAGED | 85 | 4866 |
| 2026-05-01 19:33:15 | AP ENGAGED | 85 | 4873 |
| 2026-05-01 19:34:32 | CRUISE | 80 | 5989 |
| 2026-05-01 19:35:30 | DESCEND | 112 | 6116 |
| 2026-05-01 19:50:57 | AP DISENGAGED | 114 | 1291 |
| 2026-05-01 19:51:20 | FLAP 33% | 86 | 1156 |
| 2026-05-01 19:51:24 | FLAP 66% | 81 | 1124 |
| 2026-05-01 19:51:24 | FLAP 100% | 80 | 1120 |
| 2026-05-01 19:53:43 | LANDED AIRPORT [LPGR] | 42 | 67 |
| 2026-05-01 19:53:43 | LANDED - VS: -55 ft/min | 41 | 65 |
| 2026-05-01 19:53:51 | TAXI TO THE GATE | 29 | 62 |
| 2026-05-01 19:54:30 | FLAP 66% | 2 | 55 |
| 2026-05-01 19:54:30 | FLAP 0% | 2 | 56 |
| 2026-05-01 19:55:10 | AT THE GATE | 0 | 59 |
| 2026-05-01 19:55:38 | LND LIGHTS OFF | 0 | 59 |
| 2026-05-01 19:55:40 | TAXI LIGHTS OFF | 0 | 59 |
| 2026-05-01 19:55:43 | NAV LIGHTS OFF | 0 | 59 |
| 2026-05-01 19:55:49 | STOPPING ENGINE 1 | 0 | 59 |
| 2026-05-01 19:55:55 | STB LIGHTS OFF | 0 | 59 |
| 2026-05-01 19:55:56 | BCN LIGHTS OFF | 0 | 59 |
| 2026-05-01 19:55:56 | FLIGHT FINISHED | 0 | 59 |
| 2026-05-01 20:05:40 | NAV LIGHTS ON | 0 | 59 |
| 2026-05-01 20:05:41 | BCN LIGHTS ON | 0 | 59 |
| 2026-05-01 20:05:41 | TAXI LIGHTS ON | 0 | 59 |
| 2026-05-01 20:05:42 | STB LIGHTS ON | 0 | 59 |
| 2026-05-01 20:05:43 | LND LIGHTS ON | 0 | 59 |
| 2026-05-01 19:21:30 | GOLD ACARS VERSION 3.3.7.0 | 0 | 0 |
| 2026-05-01 19:21:30 | BOARDING | 0 | 44 |
| 2026-05-01 19:21:35 | BCN LIGHTS ON | 0 | 44 |
| 2026-05-01 19:21:36 | STB LIGHTS ON | 0 | 44 |
| 2026-05-01 19:21:39 | NAV LIGHTS ON | 0 | 44 |
| 2026-05-01 19:21:40 | TAXI LIGHTS ON | 0 | 44 |
| 2026-05-01 19:21:41 | LND LIGHTS ON | 0 | 44 |
| 2026-05-01 19:21:49 | STARTING ENGINE 1 | 0 | 44 |
| 2026-05-01 19:26:06 | TAXI TO THE RWY | 0 | 44 |
| 2026-05-01 19:26:52 | FLAP 33% | 0 | 43 |
| 2026-05-01 19:26:53 | FLAP 66% | 0 | 43 |
| 2026-05-01 19:27:46 | GEAR UP | 60 | 46 |
| 2026-05-01 19:27:48 | CLIMBING | 62 | 56 |
| 2026-05-01 19:27:57 | AP ENGAGED | 60 | 189 |
| 2026-05-01 19:28:01 | AP DISENGAGED | 57 | 264 |
| 2026-05-01 19:28:06 | CRUISE | 62 | 318 |
| 2026-05-01 19:28:08 | FLAP 33% | 69 | 323 |
| 2026-05-01 19:28:08 | FLAP 0% | 71 | 323 |
| 2026-05-01 19:28:15 | CLIMBING | 89 | 320 |
| 2026-05-01 19:28:15 | AP ENGAGED | 88 | 327 |
| 2026-05-01 19:33:14 | AP DISENGAGED | 85 | 4866 |
| 2026-05-01 19:33:15 | AP ENGAGED | 85 | 4873 |
| 2026-05-01 19:34:32 | CRUISE | 80 | 5989 |
| 2026-05-01 19:35:30 | DESCEND | 112 | 6116 |
| 2026-05-01 19:50:57 | AP DISENGAGED | 114 | 1291 |
| 2026-05-01 19:51:20 | FLAP 33% | 86 | 1156 |
| 2026-05-01 19:51:24 | FLAP 66% | 81 | 1124 |
| 2026-05-01 19:51:24 | FLAP 100% | 80 | 1120 |
| 2026-05-01 19:53:43 | LANDED AIRPORT [LPGR] | 42 | 67 |
| 2026-05-01 19:53:43 | LANDED - VS: -55 ft/min | 41 | 65 |
| 2026-05-01 19:53:51 | TAXI TO THE GATE | 29 | 62 |
| 2026-05-01 19:54:30 | FLAP 66% | 2 | 55 |
| 2026-05-01 19:54:30 | FLAP 0% | 2 | 56 |
| 2026-05-01 19:55:10 | AT THE GATE | 0 | 59 |
| 2026-05-01 19:55:38 | LND LIGHTS OFF | 0 | 59 |
| 2026-05-01 19:55:40 | TAXI LIGHTS OFF | 0 | 59 |
| 2026-05-01 19:55:43 | NAV LIGHTS OFF | 0 | 59 |
| 2026-05-01 19:55:49 | STOPPING ENGINE 1 | 0 | 59 |
| 2026-05-01 19:55:55 | STB LIGHTS OFF | 0 | 59 |
| 2026-05-01 19:55:56 | BCN LIGHTS OFF | 0 | 59 |
| 2026-05-01 19:55:56 | FLIGHT FINISHED | 0 | 59 |
| 2026-05-01 20:05:40 | NAV LIGHTS ON | 0 | 59 |
| 2026-05-01 20:05:41 | BCN LIGHTS ON | 0 | 59 |
| 2026-05-01 20:05:41 | TAXI LIGHTS ON | 0 | 59 |
| 2026-05-01 20:05:42 | STB LIGHTS ON | 0 | 59 |
| 2026-05-01 20:05:43 | LND LIGHTS ON | 0 | 59 |
| 2026-05-01 19:21:30 | GOLD ACARS VERSION 3.3.7.0 | 0 | 0 |
| 2026-05-01 19:21:30 | BOARDING | 0 | 44 |
| 2026-05-01 19:21:35 | BCN LIGHTS ON | 0 | 44 |
| 2026-05-01 19:21:36 | STB LIGHTS ON | 0 | 44 |
| 2026-05-01 19:21:39 | NAV LIGHTS ON | 0 | 44 |
| 2026-05-01 19:21:40 | TAXI LIGHTS ON | 0 | 44 |
| 2026-05-01 19:21:41 | LND LIGHTS ON | 0 | 44 |
| 2026-05-01 19:21:49 | STARTING ENGINE 1 | 0 | 44 |
| 2026-05-01 19:26:06 | TAXI TO THE RWY | 0 | 44 |
| 2026-05-01 19:26:52 | FLAP 33% | 0 | 43 |
| 2026-05-01 19:26:53 | FLAP 66% | 0 | 43 |
| 2026-05-01 19:27:46 | GEAR UP | 60 | 46 |
| 2026-05-01 19:27:48 | CLIMBING | 62 | 56 |
| 2026-05-01 19:27:57 | AP ENGAGED | 60 | 189 |
| 2026-05-01 19:28:01 | AP DISENGAGED | 57 | 264 |
| 2026-05-01 19:28:06 | CRUISE | 62 | 318 |
| 2026-05-01 19:28:08 | FLAP 33% | 69 | 323 |
| 2026-05-01 19:28:08 | FLAP 0% | 71 | 323 |
| 2026-05-01 19:28:15 | CLIMBING | 89 | 320 |
| 2026-05-01 19:28:15 | AP ENGAGED | 88 | 327 |
| 2026-05-01 19:33:14 | AP DISENGAGED | 85 | 4866 |
| 2026-05-01 19:33:15 | AP ENGAGED | 85 | 4873 |
| 2026-05-01 19:34:32 | CRUISE | 80 | 5989 |
| 2026-05-01 19:35:30 | DESCEND | 112 | 6116 |
| 2026-05-01 19:50:57 | AP DISENGAGED | 114 | 1291 |
| 2026-05-01 19:51:20 | FLAP 33% | 86 | 1156 |
| 2026-05-01 19:51:24 | FLAP 66% | 81 | 1124 |
| 2026-05-01 19:51:24 | FLAP 100% | 80 | 1120 |
| 2026-05-01 19:53:43 | LANDED AIRPORT [LPGR] | 42 | 67 |
| 2026-05-01 19:53:43 | LANDED - VS: -55 ft/min | 41 | 65 |
| 2026-05-01 19:53:51 | TAXI TO THE GATE | 29 | 62 |
| 2026-05-01 19:54:30 | FLAP 66% | 2 | 55 |
| 2026-05-01 19:54:30 | FLAP 0% | 2 | 56 |
| 2026-05-01 19:55:10 | AT THE GATE | 0 | 59 |
| 2026-05-01 19:55:38 | LND LIGHTS OFF | 0 | 59 |
| 2026-05-01 19:55:40 | TAXI LIGHTS OFF | 0 | 59 |
| 2026-05-01 19:55:43 | NAV LIGHTS OFF | 0 | 59 |
| 2026-05-01 19:55:49 | STOPPING ENGINE 1 | 0 | 59 |
| 2026-05-01 19:55:55 | STB LIGHTS OFF | 0 | 59 |
| 2026-05-01 19:55:56 | BCN LIGHTS OFF | 0 | 59 |
| 2026-05-01 19:55:56 | FLIGHT FINISHED | 0 | 59 |
| 2026-05-01 20:05:40 | NAV LIGHTS ON | 0 | 59 |
| 2026-05-01 20:05:41 | BCN LIGHTS ON | 0 | 59 |
| 2026-05-01 20:05:41 | TAXI LIGHTS ON | 0 | 59 |
| 2026-05-01 20:05:42 | STB LIGHTS ON | 0 | 59 |
| 2026-05-01 20:05:43 | LND LIGHTS ON | 0 | 59 |
| 2026-05-01 19:21:30 | GOLD ACARS VERSION 3.3.7.0 | 0 | 0 |
| 2026-05-01 19:21:30 | BOARDING | 0 | 44 |
| 2026-05-01 19:21:35 | BCN LIGHTS ON | 0 | 44 |
| 2026-05-01 19:21:36 | STB LIGHTS ON | 0 | 44 |
| 2026-05-01 19:21:39 | NAV LIGHTS ON | 0 | 44 |
| 2026-05-01 19:21:40 | TAXI LIGHTS ON | 0 | 44 |
| 2026-05-01 19:21:41 | LND LIGHTS ON | 0 | 44 |
| 2026-05-01 19:21:49 | STARTING ENGINE 1 | 0 | 44 |
| 2026-05-01 19:26:06 | TAXI TO THE RWY | 0 | 44 |
| 2026-05-01 19:26:52 | FLAP 33% | 0 | 43 |
| 2026-05-01 19:26:53 | FLAP 66% | 0 | 43 |
| 2026-05-01 19:27:46 | GEAR UP | 60 | 46 |
| 2026-05-01 19:27:48 | CLIMBING | 62 | 56 |
| 2026-05-01 19:27:57 | AP ENGAGED | 60 | 189 |
| 2026-05-01 19:28:01 | AP DISENGAGED | 57 | 264 |
| 2026-05-01 19:28:06 | CRUISE | 62 | 318 |
| 2026-05-01 19:28:08 | FLAP 33% | 69 | 323 |
| 2026-05-01 19:28:08 | FLAP 0% | 71 | 323 |
| 2026-05-01 19:28:15 | CLIMBING | 89 | 320 |
| 2026-05-01 19:28:15 | AP ENGAGED | 88 | 327 |
| 2026-05-01 19:33:14 | AP DISENGAGED | 85 | 4866 |
| 2026-05-01 19:33:15 | AP ENGAGED | 85 | 4873 |
| 2026-05-01 19:34:32 | CRUISE | 80 | 5989 |
| 2026-05-01 19:35:30 | DESCEND | 112 | 6116 |
| 2026-05-01 19:50:57 | AP DISENGAGED | 114 | 1291 |
| 2026-05-01 19:51:20 | FLAP 33% | 86 | 1156 |
| 2026-05-01 19:51:24 | FLAP 66% | 81 | 1124 |
| 2026-05-01 19:51:24 | FLAP 100% | 80 | 1120 |
| 2026-05-01 19:53:43 | LANDED AIRPORT [LPGR] | 42 | 67 |
| 2026-05-01 19:53:43 | LANDED - VS: -55 ft/min | 41 | 65 |
| 2026-05-01 19:53:51 | TAXI TO THE GATE | 29 | 62 |
| 2026-05-01 19:54:30 | FLAP 66% | 2 | 55 |
| 2026-05-01 19:54:30 | FLAP 0% | 2 | 56 |
| 2026-05-01 19:55:10 | AT THE GATE | 0 | 59 |
| 2026-05-01 19:55:38 | LND LIGHTS OFF | 0 | 59 |
| 2026-05-01 19:55:40 | TAXI LIGHTS OFF | 0 | 59 |
| 2026-05-01 19:55:43 | NAV LIGHTS OFF | 0 | 59 |
| 2026-05-01 19:55:49 | STOPPING ENGINE 1 | 0 | 59 |
| 2026-05-01 19:55:55 | STB LIGHTS OFF | 0 | 59 |
| 2026-05-01 19:55:56 | BCN LIGHTS OFF | 0 | 59 |
| 2026-05-01 19:55:56 | FLIGHT FINISHED | 0 | 59 |
| 2026-05-01 20:05:40 | NAV LIGHTS ON | 0 | 59 |
| 2026-05-01 20:05:41 | BCN LIGHTS ON | 0 | 59 |
| 2026-05-01 20:05:41 | TAXI LIGHTS ON | 0 | 59 |
| 2026-05-01 20:05:42 | STB LIGHTS ON | 0 | 59 |
| 2026-05-01 20:05:43 | LND LIGHTS ON | 0 | 59 |
| DATE | IAS | GS | ALTITUDE | FUEL USED | OAT | Flight Phase |
|---|---|---|---|---|---|---|
| 2026-05-01 19:22:38 | 0 | 0 | 44 | 0 | 16 | BOARDING |
| 2026-05-01 19:23:39 | 0 | 0 | 44 | 7 | 16 | BOARDING |
| 2026-05-01 19:24:40 | 0 | 0 | 44 | 7 | 16 | BOARDING |
| 2026-05-01 19:25:41 | 0 | 0 | 44 | 7 | 16 | BOARDING |
| 2026-05-01 19:26:41 | 0 | 10 | 43 | 8 | 16 | BOARDING |
| 2026-05-01 19:27:42 | 38 | 52 | 45 | 8 | 16 | TAXI TO THE RWY |
| 2026-05-01 19:28:43 | 90 | 102 | 742 | 9 | 14 | TAXI TO THE RWY |
| 2026-05-01 19:29:44 | 95 | 109 | 1659 | 10 | 11 | CLIMBING |
| 2026-05-01 19:30:44 | 100 | 112 | 2607 | 10 | 9 | CLIMBING |
| 2026-05-01 19:31:45 | 97 | 114 | 3509 | 11 | 8 | CLIMBING |
| 2026-05-01 19:32:46 | 90 | 107 | 4439 | 12 | 6 | CLIMBING |
| 2026-05-01 19:33:47 | 81 | 103 | 5319 | 13 | 5 | CLIMBING |
| 2026-05-01 19:34:47 | 98 | 120 | 6007 | 13 | 5 | CLIMBING |
| 2026-05-01 19:35:49 | 119 | 144 | 6010 | 14 | 5 | CRUISE |
| 2026-05-01 19:36:49 | 115 | 136 | 6007 | 15 | 5 | DESCEND |
| 2026-05-01 19:37:50 | 115 | 137 | 6007 | 15 | 5 | DESCEND |
| 2026-05-01 19:38:50 | 117 | 139 | 6004 | 16 | 5 | DESCEND |
| 2026-05-01 19:39:52 | 114 | 137 | 6004 | 17 | 5 | DESCEND |
| 2026-05-01 19:40:52 | 113 | 137 | 6004 | 17 | 5 | DESCEND |
| 2026-05-01 19:41:53 | 114 | 135 | 6000 | 18 | 5 | DESCEND |
| 2026-05-01 19:42:54 | 114 | 139 | 6001 | 19 | 5 | DESCEND |
| 2026-05-01 19:43:56 | 125 | 147 | 5730 | 20 | 5 | DESCEND |
| 2026-05-01 19:44:56 | 144 | 164 | 4643 | 20 | 6 | DESCEND |
| 2026-05-01 19:45:57 | 145 | 161 | 3246 | 21 | 8 | DESCEND |
| 2026-05-01 19:46:58 | 139 | 154 | 2005 | 22 | 11 | DESCEND |
| 2026-05-01 19:47:59 | 131 | 146 | 1997 | 23 | 11 | DESCEND |
| 2026-05-01 19:48:59 | 130 | 144 | 1995 | 23 | 11 | DESCEND |
| 2026-05-01 19:50:00 | 139 | 151 | 1417 | 24 | 12 | DESCEND |
| 2026-05-01 19:51:00 | 106 | 98 | 1285 | 25 | 12 | DESCEND |
| 2026-05-01 19:52:02 | 56 | 47 | 738 | 25 | 14 | DESCEND |
| 2026-05-01 19:53:02 | 63 | 52 | 217 | 25 | 15 | DESCEND |
| 2026-05-01 19:54:03 | 13 | 14 | 61 | 26 | 15 | DESCEND |
| 2026-05-01 19:55:03 | 0 | 0 | 59 | 26 | 15 | TAXI TO THE GATE |
| 2026-05-01 20:06:12 | 0 | 0 | -13 | 0 | 16 | TAXI TO THE GATE |